ARG1009 SACO-SARI
Flight info
| Callsign | ARG1009 |
|---|---|
| Flight time | 1h 24m |
| Altitude | 37000 |
| Route | TREJO1C TREJO UL531 ERE UW14 POS POS2Q |
| Aircraft | A320/M-SDE3FGHIRWY/LB1 |
Departure
| Time | 2026-05-04 23:34 |
|---|---|
| Airport | Ingeniero Aeronáutico Ambrosio L.V. Taravella International Airport (SACO) |
Arrival
| Time | 2026-05-05 00:58 |
|---|---|
| Airport | Cataratas Del Iguazú International Airport (SARI) |
| Time | Latitude | Longitude | Altitude | Speed | Heading |
|---|---|---|---|---|---|
| 2026-05-04 23:15 | -31.31488 | -64.21184 | 1613 ft | 0 kts | 262° |
| 2026-05-04 23:26 | -31.31487 | -64.21173 | 1616 ft | 3 kts | 255° |
| 2026-05-04 23:27 | -31.31483 | -64.21150 | 1615 ft | 3 kts | 260° |
| 2026-05-04 23:27 | -31.31479 | -64.21127 | 1617 ft | 3 kts | 260° |
| 2026-05-04 23:27 | -31.31475 | -64.21104 | 1619 ft | 3 kts | 255° |
| 2026-05-04 23:27 | -31.31469 | -64.21085 | 1621 ft | 3 kts | 217° |
| 2026-05-04 23:28 | -31.31459 | -64.21080 | 1615 ft | 1 kts | 181° |
| 2026-05-04 23:28 | -31.31457 | -64.21080 | 1619 ft | 0 kts | 181° |
| 2026-05-04 23:30 | -31.31482 | -64.21080 | 1617 ft | 8 kts | 181° |
| 2026-05-04 23:30 | -31.31535 | -64.21083 | 1615 ft | 9 kts | 191° |
| 2026-05-04 23:30 | -31.31608 | -64.21101 | 1618 ft | 12 kts | 180° |
| 2026-05-04 23:30 | -31.31719 | -64.21093 | 1620 ft | 17 kts | 157° |
| 2026-05-04 23:31 | -31.31820 | -64.21031 | 1616 ft | 16 kts | 176° |
| 2026-05-04 23:31 | -31.31926 | -64.21027 | 1614 ft | 16 kts | 177° |
| 2026-05-04 23:31 | -31.32041 | -64.21023 | 1618 ft | 16 kts | 181° |
| 2026-05-04 23:31 | -31.32145 | -64.21024 | 1617 ft | 14 kts | 179° |
| 2026-05-04 23:32 | -31.32251 | -64.21022 | 1614 ft | 17 kts | 179° |
| 2026-05-04 23:32 | -31.32361 | -64.21019 | 1618 ft | 14 kts | 176° |
| 2026-05-04 23:32 | -31.32432 | -64.20965 | 1618 ft | 12 kts | 117° |
| 2026-05-04 23:32 | -31.32436 | -64.20868 | 1614 ft | 13 kts | 89° |
| 2026-05-04 23:33 | -31.32389 | -64.20815 | 1617 ft | 9 kts | 359° |
| 2026-05-04 23:33 | -31.32368 | -64.20815 | 1616 ft | 0 kts | 359° |
| 2026-05-04 23:33 | -31.32303 | -64.20816 | 1616 ft | 37 kts | 359° |
| 2026-05-04 23:34 | -31.31796 | -64.20822 | 1618 ft | 106 kts | 359° |
| 2026-05-04 23:34 | -31.30864 | -64.20842 | 1624 ft | 158 kts | 1° |
| 2026-05-04 23:34 | -31.29807 | -64.20856 | 2232 ft | 151 kts | 1° |
| 2026-05-04 23:34 | -31.28777 | -64.20895 | 2829 ft | 148 kts | 5° |
| 2026-05-04 23:35 | -31.27717 | -64.20626 | 3022 ft | 167 kts | 24° |
| 2026-05-04 23:35 | -31.26692 | -64.19766 | 3156 ft | 194 kts | 47° |
| 2026-05-04 23:35 | -31.25834 | -64.18567 | 3780 ft | 191 kts | 47° |
| 2026-05-04 23:35 | -31.25014 | -64.17275 | 4129 ft | 208 kts | 53° |
| 2026-05-04 23:36 | -31.24159 | -64.15785 | 4328 ft | 233 kts | 54° |
| 2026-05-04 23:36 | -31.23222 | -64.14113 | 4644 ft | 258 kts | 54° |
| 2026-05-04 23:36 | -31.22219 | -64.12309 | 5233 ft | 269 kts | 54° |
| 2026-05-04 23:36 | -31.21184 | -64.10452 | 5919 ft | 276 kts | 54° |
| 2026-05-04 23:37 | -31.20119 | -64.08555 | 6565 ft | 282 kts | 54° |
| 2026-05-04 23:37 | -31.19035 | -64.06628 | 7201 ft | 286 kts | 54° |
| 2026-05-04 23:37 | -31.17934 | -64.04672 | 7854 ft | 290 kts | 54° |
| 2026-05-04 23:37 | -31.16816 | -64.02687 | 8497 ft | 295 kts | 54° |
| 2026-05-04 23:38 | -31.15686 | -64.00674 | 9144 ft | 299 kts | 54° |
| 2026-05-04 23:38 | -31.14536 | -63.98627 | 9792 ft | 303 kts | 54° |
| 2026-05-04 23:38 | -31.13366 | -63.96550 | 10264 ft | 314 kts | 54° |
| 2026-05-04 23:38 | -31.12116 | -63.94348 | 10391 ft | 336 kts | 54° |
| 2026-05-04 23:39 | -31.10781 | -63.92010 | 10518 ft | 357 kts | 54° |
| 2026-05-04 23:39 | -31.09374 | -63.89542 | 10804 ft | 370 kts | 54° |
| 2026-05-04 23:39 | -31.07947 | -63.87021 | 11297 ft | 376 kts | 54° |
| 2026-05-04 23:39 | -31.06497 | -63.84457 | 11853 ft | 380 kts | 54° |
| 2026-05-04 23:40 | -31.05029 | -63.81865 | 12397 ft | 385 kts | 54° |
| 2026-05-04 23:40 | -31.03547 | -63.79247 | 12940 ft | 389 kts | 54° |
| 2026-05-04 23:40 | -31.02043 | -63.76597 | 13474 ft | 394 kts | 54° |
| 2026-05-04 23:40 | -31.00520 | -63.73912 | 13969 ft | 399 kts | 54° |
| 2026-05-04 23:41 | -30.98975 | -63.71197 | 14441 ft | 403 kts | 54° |
| 2026-05-04 23:41 | -30.97433 | -63.68499 | 14946 ft | 406 kts | 54° |
| 2026-05-04 23:41 | -30.95867 | -63.65752 | 15474 ft | 409 kts | 53° |
| 2026-05-04 23:41 | -30.94282 | -63.62975 | 15997 ft | 412 kts | 53° |
| 2026-05-04 23:42 | -30.92692 | -63.60191 | 16527 ft | 415 kts | 53° |
| 2026-05-04 23:42 | -30.91084 | -63.57386 | 17057 ft | 417 kts | 53° |
| 2026-05-04 23:42 | -30.89470 | -63.54564 | 17595 ft | 420 kts | 53° |
| 2026-05-04 23:42 | -30.87845 | -63.51719 | 18115 ft | 423 kts | 53° |
| 2026-05-04 23:43 | -30.86207 | -63.48855 | 18576 ft | 426 kts | 53° |
| 2026-05-04 23:43 | -30.84555 | -63.45966 | 19028 ft | 430 kts | 53° |
| 2026-05-04 23:43 | -30.82892 | -63.43061 | 19479 ft | 433 kts | 53° |
| 2026-05-04 23:43 | -30.81213 | -63.40136 | 19943 ft | 436 kts | 53° |
| 2026-05-04 23:44 | -30.79525 | -63.37196 | 20386 ft | 439 kts | 53° |
| 2026-05-04 23:44 | -30.77829 | -63.34243 | 20860 ft | 441 kts | 53° |
| 2026-05-04 23:44 | -30.76088 | -63.31285 | 21296 ft | 444 kts | 52° |
| 2026-05-04 23:44 | -30.74288 | -63.28362 | 21708 ft | 447 kts | 51° |
| 2026-05-04 23:45 | -30.73063 | -63.26426 | 21976 ft | 449 kts | 50° |
| 2026-05-04 23:45 | -30.71193 | -63.23504 | 22377 ft | 452 kts | 50° |
| 2026-05-04 23:45 | -30.69306 | -63.20564 | 22765 ft | 456 kts | 50° |
| 2026-05-04 23:45 | -30.67411 | -63.17602 | 23141 ft | 459 kts | 50° |
| 2026-05-04 23:46 | -30.65511 | -63.14605 | 23499 ft | 462 kts | 51° |
| 2026-05-04 23:46 | -30.63608 | -63.11581 | 23809 ft | 465 kts | 51° |
| 2026-05-04 23:46 | -30.61697 | -63.08535 | 24134 ft | 468 kts | 51° |
| 2026-05-04 23:46 | -30.59773 | -63.05474 | 24455 ft | 470 kts | 51° |
| 2026-05-04 23:47 | -30.57841 | -63.02401 | 24764 ft | 472 kts | 51° |
| 2026-05-04 23:47 | -30.55903 | -62.99319 | 25086 ft | 474 kts | 51° |
| 2026-05-04 23:47 | -30.53949 | -62.96221 | 25394 ft | 476 kts | 50° |
| 2026-05-04 23:47 | -30.51984 | -62.93114 | 25690 ft | 479 kts | 50° |
| 2026-05-04 23:48 | -30.50012 | -62.89995 | 25996 ft | 481 kts | 50° |
| 2026-05-04 23:48 | -30.48031 | -62.86868 | 26292 ft | 483 kts | 50° |
| 2026-05-04 23:48 | -30.46037 | -62.83724 | 26579 ft | 485 kts | 50° |
| 2026-05-04 23:48 | -30.44030 | -62.80567 | 26856 ft | 487 kts | 50° |
| 2026-05-04 23:49 | -30.42019 | -62.77404 | 27136 ft | 489 kts | 50° |
| 2026-05-04 23:49 | -30.40003 | -62.74225 | 27386 ft | 491 kts | 50° |
| 2026-05-04 23:49 | -30.37975 | -62.71030 | 27645 ft | 493 kts | 50° |
| 2026-05-04 23:49 | -30.35939 | -62.67822 | 27897 ft | 495 kts | 50° |
| 2026-05-04 23:50 | -30.33897 | -62.64607 | 28143 ft | 497 kts | 50° |
| 2026-05-04 23:50 | -30.31835 | -62.61385 | 28378 ft | 499 kts | 50° |
| 2026-05-04 23:50 | -30.29759 | -62.58158 | 28609 ft | 501 kts | 50° |
| 2026-05-04 23:50 | -30.27672 | -62.54924 | 28832 ft | 502 kts | 50° |
| 2026-05-04 23:51 | -30.25579 | -62.51680 | 29043 ft | 504 kts | 50° |
| 2026-05-04 23:51 | -30.23483 | -62.48421 | 29258 ft | 506 kts | 50° |
| 2026-05-04 23:51 | -30.21386 | -62.45154 | 29531 ft | 505 kts | 50° |
| 2026-05-04 23:51 | -30.19293 | -62.41895 | 29839 ft | 505 kts | 50° |
| 2026-05-04 23:52 | -30.17196 | -62.38631 | 30104 ft | 505 kts | 50° |
| 2026-05-04 23:52 | -30.15104 | -62.35377 | 30347 ft | 504 kts | 50° |
| 2026-05-04 23:52 | -30.13009 | -62.32128 | 30584 ft | 504 kts | 50° |
| 2026-05-04 23:52 | -30.10909 | -62.28878 | 30824 ft | 504 kts | 50° |
| 2026-05-04 23:53 | -30.08840 | -62.25678 | 31064 ft | 504 kts | 50° |
| 2026-05-04 23:53 | -30.06742 | -62.22429 | 31292 ft | 504 kts | 50° |
| 2026-05-04 23:53 | -30.04647 | -62.19185 | 31539 ft | 504 kts | 50° |
| 2026-05-04 23:53 | -30.02551 | -62.15944 | 31794 ft | 504 kts | 50° |
| 2026-05-04 23:54 | -30.00455 | -62.12708 | 32015 ft | 504 kts | 50° |
| 2026-05-04 23:54 | -29.98355 | -62.09475 | 32229 ft | 504 kts | 49° |
| 2026-05-04 23:54 | -29.96245 | -62.06236 | 32454 ft | 505 kts | 49° |
| 2026-05-04 23:54 | -29.94138 | -62.03001 | 32688 ft | 505 kts | 49° |
| 2026-05-04 23:55 | -29.92029 | -61.99757 | 32929 ft | 505 kts | 49° |
| 2026-05-04 23:55 | -29.89925 | -61.96519 | 33168 ft | 505 kts | 50° |
| 2026-05-04 23:55 | -29.86480 | -61.89435 | 33631 ft | 511 kts | 68° |
| 2026-05-04 23:56 | -29.85342 | -61.85545 | 33859 ft | 512 kts | 70° |
| 2026-05-04 23:56 | -29.84235 | -61.81643 | 34065 ft | 512 kts | 70° |
| 2026-05-04 23:56 | -29.83120 | -61.77747 | 34256 ft | 513 kts | 70° |
| 2026-05-04 23:56 | -29.81999 | -61.73853 | 34442 ft | 513 kts | 70° |
| 2026-05-04 23:57 | -29.80873 | -61.69943 | 34620 ft | 514 kts | 70° |
| 2026-05-04 23:57 | -29.79749 | -61.66042 | 34809 ft | 514 kts | 70° |
| 2026-05-04 23:57 | -29.78622 | -61.62122 | 34979 ft | 515 kts | 70° |
| 2026-05-04 23:57 | -29.77503 | -61.58215 | 35148 ft | 515 kts | 70° |
| 2026-05-04 23:58 | -29.76382 | -61.54299 | 35323 ft | 515 kts | 70° |
| 2026-05-04 23:58 | -29.75257 | -61.50380 | 35476 ft | 516 kts | 70° |
| 2026-05-04 23:58 | -29.74128 | -61.46460 | 35629 ft | 516 kts | 70° |
| 2026-05-04 23:58 | -29.72992 | -61.42541 | 35778 ft | 517 kts | 70° |
| 2026-05-04 23:59 | -29.71851 | -61.38623 | 35933 ft | 517 kts | 70° |
| 2026-05-04 23:59 | -29.70709 | -61.34698 | 36089 ft | 517 kts | 70° |
| 2026-05-04 23:59 | -29.69571 | -61.30778 | 36227 ft | 518 kts | 70° |
| 2026-05-04 23:59 | -29.68430 | -61.26851 | 36360 ft | 518 kts | 70° |
| 2026-05-05 00:00 | -29.67288 | -61.22925 | 36491 ft | 518 kts | 70° |
| 2026-05-05 00:00 | -29.64990 | -61.15053 | 36759 ft | 519 kts | 70° |
| 2026-05-05 00:00 | -29.63841 | -61.11121 | 36893 ft | 519 kts | 70° |
| 2026-05-05 00:01 | -29.62704 | -61.07223 | 36909 ft | 521 kts | 70° |
| 2026-05-05 00:01 | -29.60395 | -60.99320 | 36905 ft | 522 kts | 70° |
| 2026-05-05 00:02 | -29.58076 | -60.91419 | 36907 ft | 522 kts | 70° |
| 2026-05-05 00:02 | -29.55745 | -60.83511 | 36906 ft | 522 kts | 70° |
| 2026-05-05 00:03 | -29.53395 | -60.75623 | 36910 ft | 522 kts | 70° |
| 2026-05-05 00:03 | -29.51017 | -60.67744 | 36915 ft | 522 kts | 70° |
| 2026-05-05 00:04 | -29.48632 | -60.59860 | 36918 ft | 522 kts | 70° |
| 2026-05-05 00:04 | -29.46256 | -60.51989 | 36922 ft | 522 kts | 70° |
| 2026-05-05 00:05 | -29.43871 | -60.44106 | 36930 ft | 523 kts | 70° |
| 2026-05-05 00:05 | -29.41478 | -60.36226 | 36935 ft | 523 kts | 70° |
| 2026-05-05 00:06 | -29.39107 | -60.28342 | 36933 ft | 523 kts | 70° |
| 2026-05-05 00:06 | -29.36745 | -60.20453 | 36935 ft | 523 kts | 70° |
| 2026-05-05 00:07 | -29.34369 | -60.12569 | 36937 ft | 523 kts | 70° |
| 2026-05-05 00:07 | -29.31977 | -60.04694 | 36944 ft | 523 kts | 70° |
| 2026-05-05 00:08 | -29.29583 | -59.96817 | 36942 ft | 523 kts | 70° |
| 2026-05-05 00:08 | -29.27191 | -59.88945 | 36947 ft | 523 kts | 70° |
| 2026-05-05 00:09 | -29.24790 | -59.81079 | 36944 ft | 523 kts | 70° |
| 2026-05-05 00:09 | -29.22380 | -59.73220 | 36949 ft | 523 kts | 70° |
| 2026-05-05 00:10 | -29.19627 | -59.65599 | 36948 ft | 520 kts | 59° |
| 2026-05-05 00:10 | -29.16194 | -59.58316 | 36942 ft | 520 kts | 59° |
| 2026-05-05 00:11 | -29.12752 | -59.51031 | 36932 ft | 520 kts | 59° |
| 2026-05-05 00:11 | -29.09314 | -59.43753 | 36935 ft | 520 kts | 59° |
| 2026-05-05 00:12 | -29.05867 | -59.36481 | 36936 ft | 520 kts | 59° |
| 2026-05-05 00:12 | -29.02417 | -59.29216 | 36937 ft | 520 kts | 59° |
| 2026-05-05 00:13 | -28.98970 | -59.21948 | 36949 ft | 521 kts | 59° |
| 2026-05-05 00:13 | -28.95510 | -59.14675 | 36953 ft | 521 kts | 59° |
| 2026-05-05 00:14 | -28.92033 | -59.07416 | 36959 ft | 521 kts | 59° |
| 2026-05-05 00:14 | -28.88558 | -59.00157 | 36968 ft | 521 kts | 59° |
| 2026-05-05 00:15 | -28.85094 | -58.92906 | 36951 ft | 521 kts | 60° |
| 2026-05-05 00:15 | -28.81696 | -58.85671 | 36952 ft | 521 kts | 60° |
| 2026-05-05 00:16 | -28.78294 | -58.78367 | 36966 ft | 521 kts | 60° |
| 2026-05-05 00:16 | -28.74883 | -58.71083 | 36961 ft | 521 kts | 60° |
| 2026-05-05 00:17 | -28.71450 | -58.63798 | 36967 ft | 521 kts | 60° |
| 2026-05-05 00:17 | -28.68014 | -58.56520 | 36972 ft | 521 kts | 60° |
| 2026-05-05 00:18 | -28.64575 | -58.49255 | 36956 ft | 521 kts | 60° |
| 2026-05-05 00:18 | -28.61112 | -58.42014 | 36961 ft | 521 kts | 59° |
| 2026-05-05 00:19 | -28.57566 | -58.34818 | 36943 ft | 521 kts | 59° |
| 2026-05-05 00:19 | -28.54010 | -58.27632 | 36964 ft | 521 kts | 59° |
| 2026-05-05 00:20 | -28.50472 | -58.20437 | 36968 ft | 521 kts | 59° |
| 2026-05-05 00:20 | -28.46931 | -58.13240 | 36973 ft | 522 kts | 59° |
| 2026-05-05 00:21 | -28.43380 | -58.06038 | 36976 ft | 521 kts | 59° |
| 2026-05-05 00:21 | -28.39835 | -57.98851 | 36976 ft | 522 kts | 59° |
| 2026-05-05 00:22 | -28.36301 | -57.91710 | 36979 ft | 522 kts | 59° |
| 2026-05-05 00:22 | -28.32734 | -57.84516 | 36979 ft | 522 kts | 59° |
| 2026-05-05 00:23 | -28.29175 | -57.77340 | 36975 ft | 522 kts | 59° |
| 2026-05-05 00:23 | -28.25608 | -57.70151 | 36981 ft | 522 kts | 59° |
| 2026-05-05 00:24 | -28.22051 | -57.62964 | 36978 ft | 522 kts | 59° |
| 2026-05-05 00:24 | -28.18495 | -57.55768 | 36984 ft | 523 kts | 59° |
| 2026-05-05 00:25 | -28.14943 | -57.48584 | 36988 ft | 523 kts | 59° |
| 2026-05-05 00:25 | -28.11392 | -57.41397 | 36987 ft | 522 kts | 59° |
| 2026-05-05 00:26 | -28.07841 | -57.34222 | 36987 ft | 522 kts | 59° |
| 2026-05-05 00:26 | -28.04276 | -57.27052 | 36973 ft | 522 kts | 59° |
| 2026-05-05 00:27 | -28.00707 | -57.19893 | 36979 ft | 523 kts | 59° |
| 2026-05-05 00:27 | -27.97135 | -57.12723 | 36985 ft | 523 kts | 59° |
| 2026-05-05 00:28 | -27.93559 | -57.05557 | 36989 ft | 523 kts | 59° |
| 2026-05-05 00:28 | -27.89978 | -56.98397 | 36989 ft | 523 kts | 59° |
| 2026-05-05 00:29 | -27.86389 | -56.91223 | 36994 ft | 524 kts | 59° |
| 2026-05-05 00:29 | -27.82794 | -56.84062 | 36995 ft | 524 kts | 59° |
| 2026-05-05 00:30 | -27.79216 | -56.76952 | 36996 ft | 524 kts | 59° |
| 2026-05-05 00:30 | -27.76188 | -56.70952 | 37000 ft | 524 kts | 59° |
| 2026-05-05 00:31 | -27.72576 | -56.63805 | 37002 ft | 524 kts | 59° |
| 2026-05-05 00:31 | -27.69000 | -56.56706 | 36998 ft | 524 kts | 59° |
| 2026-05-05 00:32 | -27.65389 | -56.49560 | 37007 ft | 524 kts | 59° |
| 2026-05-05 00:32 | -27.61774 | -56.42427 | 37008 ft | 524 kts | 59° |
| 2026-05-05 00:33 | -27.58153 | -56.35297 | 37011 ft | 524 kts | 59° |
| 2026-05-05 00:33 | -27.54528 | -56.28172 | 37015 ft | 524 kts | 59° |
| 2026-05-05 00:34 | -27.50895 | -56.21042 | 36992 ft | 524 kts | 59° |
| 2026-05-05 00:34 | -27.47258 | -56.13928 | 36999 ft | 524 kts | 59° |
| 2026-05-05 00:35 | -27.43624 | -56.06809 | 37008 ft | 524 kts | 59° |
| 2026-05-05 00:35 | -27.39591 | -55.99999 | 37014 ft | 521 kts | 45° |
| 2026-05-05 00:36 | -27.34182 | -55.94805 | 37009 ft | 510 kts | 26° |
| 2026-05-05 00:36 | -27.27907 | -55.91220 | 36979 ft | 505 kts | 19° |
| 2026-05-05 00:37 | -27.21555 | -55.87835 | 36979 ft | 505 kts | 19° |
| 2026-05-05 00:37 | -27.15199 | -55.84450 | 36962 ft | 506 kts | 19° |
| 2026-05-05 00:38 | -27.08835 | -55.81055 | 36979 ft | 506 kts | 20° |
| 2026-05-05 00:38 | -27.02471 | -55.77669 | 36959 ft | 507 kts | 19° |
| 2026-05-05 00:38 | -26.99277 | -55.75978 | 36701 ft | 506 kts | 19° |
| 2026-05-05 00:39 | -26.96097 | -55.74295 | 36456 ft | 506 kts | 20° |
| 2026-05-05 00:39 | -26.92914 | -55.72611 | 36206 ft | 506 kts | 20° |
| 2026-05-05 00:39 | -26.89734 | -55.70928 | 35971 ft | 505 kts | 20° |
| 2026-05-05 00:39 | -26.86553 | -55.69247 | 35712 ft | 505 kts | 20° |
| 2026-05-05 00:40 | -26.83380 | -55.67569 | 35361 ft | 504 kts | 20° |
| 2026-05-05 00:40 | -26.80183 | -55.65879 | 34254 ft | 513 kts | 20° |
| 2026-05-05 00:40 | -26.76946 | -55.64167 | 33149 ft | 513 kts | 20° |
| 2026-05-05 00:40 | -26.73745 | -55.62468 | 32063 ft | 505 kts | 21° |
| 2026-05-05 00:41 | -26.70625 | -55.60813 | 31024 ft | 505 kts | 21° |
| 2026-05-05 00:41 | -26.67432 | -55.59128 | 29811 ft | 507 kts | 21° |
| 2026-05-05 00:41 | -26.64266 | -55.57461 | 28804 ft | 495 kts | 21° |
| 2026-05-05 00:41 | -26.61196 | -55.55844 | 28310 ft | 484 kts | 21° |
| 2026-05-05 00:42 | -26.58155 | -55.54248 | 27552 ft | 482 kts | 22° |
| 2026-05-05 00:42 | -26.55128 | -55.52661 | 26841 ft | 479 kts | 22° |
| 2026-05-05 00:42 | -26.52123 | -55.51084 | 26139 ft | 476 kts | 22° |
| 2026-05-05 00:42 | -26.49130 | -55.49511 | 25441 ft | 474 kts | 23° |
| 2026-05-05 00:43 | -26.46159 | -55.47949 | 24749 ft | 471 kts | 23° |
| 2026-05-05 00:43 | -26.43195 | -55.46391 | 24069 ft | 469 kts | 24° |
| 2026-05-05 00:43 | -26.40254 | -55.44848 | 23352 ft | 466 kts | 24° |
| 2026-05-05 00:43 | -26.37331 | -55.43317 | 22662 ft | 462 kts | 24° |
| 2026-05-05 00:44 | -26.34446 | -55.41806 | 22064 ft | 456 kts | 24° |
| 2026-05-05 00:44 | -26.31583 | -55.40305 | 21471 ft | 451 kts | 24° |
| 2026-05-05 00:44 | -26.28760 | -55.38826 | 20897 ft | 446 kts | 23° |
| 2026-05-05 00:44 | -26.25961 | -55.37362 | 20365 ft | 441 kts | 24° |
| 2026-05-05 00:45 | -26.23196 | -55.35916 | 19848 ft | 437 kts | 24° |
| 2026-05-05 00:45 | -26.20455 | -55.34484 | 19333 ft | 433 kts | 23° |
| 2026-05-05 00:45 | -26.17740 | -55.33062 | 18823 ft | 430 kts | 23° |
| 2026-05-05 00:45 | -26.15040 | -55.31652 | 18282 ft | 428 kts | 23° |
| 2026-05-05 00:46 | -26.12348 | -55.30250 | 17707 ft | 425 kts | 23° |
| 2026-05-05 00:46 | -26.09678 | -55.28859 | 17164 ft | 422 kts | 23° |
| 2026-05-05 00:46 | -26.07027 | -55.27475 | 16617 ft | 419 kts | 24° |
| 2026-05-05 00:46 | -26.04395 | -55.26100 | 16062 ft | 417 kts | 24° |
| 2026-05-05 00:47 | -26.01783 | -55.24735 | 15500 ft | 415 kts | 24° |
| 2026-05-05 00:47 | -25.99173 | -55.23377 | 14927 ft | 413 kts | 24° |
| 2026-05-05 00:47 | -25.96591 | -55.22038 | 14345 ft | 405 kts | 24° |
| 2026-05-05 00:47 | -25.94085 | -55.20738 | 13792 ft | 388 kts | 24° |
| 2026-05-05 00:48 | -25.91647 | -55.19471 | 13203 ft | 386 kts | 24° |
| 2026-05-05 00:48 | -25.89254 | -55.18135 | 12635 ft | 384 kts | 31° |
| 2026-05-05 00:48 | -25.87200 | -55.16248 | 12022 ft | 385 kts | 46° |
| 2026-05-05 00:48 | -25.85678 | -55.13813 | 11412 ft | 385 kts | 62° |
| 2026-05-05 00:49 | -25.84563 | -55.11115 | 10799 ft | 383 kts | 64° |
| 2026-05-05 00:49 | -25.83503 | -55.08512 | 10555 ft | 355 kts | 63° |
| 2026-05-05 00:49 | -25.82515 | -55.06085 | 10432 ft | 334 kts | 63° |
| 2026-05-05 00:49 | -25.81591 | -55.03824 | 10277 ft | 311 kts | 62° |
| 2026-05-05 00:50 | -25.80713 | -55.01687 | 9877 ft | 299 kts | 62° |
| 2026-05-05 00:50 | -25.79852 | -54.99602 | 9757 ft | 297 kts | 62° |
| 2026-05-05 00:50 | -25.78993 | -54.97521 | 9629 ft | 296 kts | 62° |
| 2026-05-05 00:50 | -25.78136 | -54.95449 | 9383 ft | 294 kts | 62° |
| 2026-05-05 00:51 | -25.77296 | -54.93416 | 8959 ft | 295 kts | 62° |
| 2026-05-05 00:51 | -25.76442 | -54.91349 | 8523 ft | 294 kts | 62° |
| 2026-05-05 00:51 | -25.75601 | -54.89310 | 8070 ft | 287 kts | 62° |
| 2026-05-05 00:51 | -25.74768 | -54.87295 | 7616 ft | 288 kts | 62° |
| 2026-05-05 00:52 | -25.73937 | -54.85283 | 7261 ft | 285 kts | 62° |
| 2026-05-05 00:52 | -25.73114 | -54.83291 | 6750 ft | 281 kts | 63° |
| 2026-05-05 00:52 | -25.72305 | -54.81330 | 6286 ft | 279 kts | 63° |
| 2026-05-05 00:52 | -25.71508 | -54.79402 | 5842 ft | 272 kts | 63° |
| 2026-05-05 00:53 | -25.70742 | -54.77548 | 5677 ft | 257 kts | 62° |
| 2026-05-05 00:53 | -25.70013 | -54.75783 | 5538 ft | 247 kts | 62° |
| 2026-05-05 00:53 | -25.69304 | -54.74070 | 5416 ft | 243 kts | 63° |
| 2026-05-05 00:53 | -25.68615 | -54.72334 | 4942 ft | 247 kts | 64° |
| 2026-05-05 00:54 | -25.67956 | -54.70602 | 4502 ft | 241 kts | 64° |
| 2026-05-05 00:54 | -25.67323 | -54.68910 | 4319 ft | 234 kts | 65° |
| 2026-05-05 00:54 | -25.66733 | -54.67271 | 4212 ft | 223 kts | 70° |
| 2026-05-05 00:54 | -25.66513 | -54.65596 | 4057 ft | 219 kts | 89° |
| 2026-05-05 00:55 | -25.66792 | -54.63950 | 3819 ft | 218 kts | 109° |
| 2026-05-05 00:55 | -25.67416 | -54.62419 | 3546 ft | 219 kts | 112° |
| 2026-05-05 00:55 | -25.68066 | -54.60891 | 3260 ft | 219 kts | 112° |
| 2026-05-05 00:55 | -25.68707 | -54.59361 | 2967 ft | 219 kts | 111° |
| 2026-05-05 00:56 | -25.69344 | -54.57838 | 2679 ft | 214 kts | 111° |
| 2026-05-05 00:56 | -25.69960 | -54.56363 | 2407 ft | 207 kts | 110° |
| 2026-05-05 00:56 | -25.70549 | -54.54959 | 2153 ft | 195 kts | 110° |
| 2026-05-05 00:56 | -25.71105 | -54.53638 | 1865 ft | 182 kts | 110° |
| 2026-05-05 00:57 | -25.71613 | -54.52427 | 1663 ft | 165 kts | 110° |
| 2026-05-05 00:57 | -25.72075 | -54.51320 | 1428 ft | 152 kts | 112° |
| 2026-05-05 00:57 | -25.72496 | -54.50276 | 1219 ft | 145 kts | 113° |
| 2026-05-05 00:57 | -25.72922 | -54.49275 | 1052 ft | 143 kts | 114° |
| 2026-05-05 00:58 | -25.73329 | -54.48300 | 944 ft | 130 kts | 113° |
| 2026-05-05 00:58 | -25.73650 | -54.47526 | 928 ft | 75 kts | 116° |
| 2026-05-05 00:58 | -25.73735 | -54.47309 | 927 ft | 11 kts | 72° |
| 2026-05-05 00:58 | -25.73678 | -54.47320 | 931 ft | 9 kts | 332° |
| 2026-05-05 00:59 | -25.73657 | -54.47332 | 929 ft | 8 kts | 333° |
| 2026-05-05 00:59 | -25.73611 | -54.47365 | 930 ft | 7 kts | 324° |
| 2026-05-05 00:59 | -25.73573 | -54.47395 | 928 ft | 6 kts | 324° |
| 2026-05-05 00:59 | -25.73538 | -54.47424 | 926 ft | 6 kts | 323° |
| 2026-05-05 01:00 | -25.73506 | -54.47449 | 929 ft | 7 kts | 325° |
| 2026-05-05 01:00 | -25.73464 | -54.47482 | 927 ft | 7 kts | 325° |
| 2026-05-05 01:00 | -25.73428 | -54.47510 | 931 ft | 6 kts | 324° |
| 2026-05-05 01:00 | -25.73400 | -54.47532 | 930 ft | 4 kts | 324° |
| 2026-05-05 01:01 | -25.73378 | -54.47550 | 929 ft | 3 kts | 324° |